createdAt,value
2023-04-28T00:03:07.153Z,5.30
2023-04-28T00:08:08.986Z,5.78
2023-04-28T00:13:11.168Z,5.75
2023-04-28T00:18:12.909Z,6.05
2023-04-28T00:23:14.688Z,6.95
2023-04-28T00:28:30.586Z,6.35
2023-04-28T00:33:34.977Z,7.18
2023-04-28T00:38:36.916Z,7.03
2023-04-28T00:43:48.839Z,6.28
2023-04-28T00:48:50.907Z,7.35
2023-04-28T00:53:52.742Z,5.90
2023-04-28T00:58:54.568Z,6.45
2023-04-28T01:03:56.552Z,6.60
2023-04-28T01:08:59.274Z,5.65
2023-04-28T01:14:01.029Z,5.72
2023-04-28T01:19:08.374Z,5.55
2023-04-28T01:24:12.426Z,5.53
2023-04-28T01:29:14.640Z,4.93
2023-04-28T01:34:17.795Z,5.90
2023-04-28T01:39:20.363Z,6.30
2023-04-28T01:44:22.122Z,6.65
2023-04-28T01:49:24.176Z,5.97
2023-04-28T01:54:27.360Z,7.10
2023-04-28T01:59:29.627Z,7.47
2023-04-28T02:04:31.817Z,7.00
2023-04-28T02:09:34.154Z,6.97
2023-04-28T02:14:35.966Z,7.93
2023-04-28T02:19:38.739Z,6.78
2023-04-28T02:24:41.006Z,7.50
2023-04-28T02:29:42.768Z,6.97
2023-04-28T02:34:44.508Z,7.15
2023-04-28T02:39:46.526Z,7.40
2023-04-28T02:44:49.575Z,7.95
2023-04-28T02:49:51.335Z,6.30
2023-04-28T02:54:57.148Z,5.95
2023-04-28T02:59:58.980Z,6.93
2023-04-28T03:05:04.396Z,7.35
2023-04-28T03:10:07.058Z,7.20
2023-04-28T03:15:09.250Z,7.50
2023-04-28T03:20:13.192Z,7.32
2023-04-28T03:25:15.263Z,7.22
2023-04-28T03:30:23.115Z,9.40
2023-04-28T03:35:25.051Z,8.05
2023-04-28T03:40:26.936Z,9.50
2023-04-28T03:45:43.997Z,8.13
2023-04-28T03:50:45.929Z,7.40
2023-04-28T03:55:47.979Z,9.48
2023-04-28T04:00:49.974Z,10.45
2023-04-28T04:05:51.806Z,9.02
2023-04-28T04:10:55.004Z,10.45
2023-04-28T04:15:56.880Z,9.65
2023-04-28T04:20:59.783Z,10.40
2023-04-28T04:26:02.403Z,9.20
2023-04-28T04:31:04.319Z,9.88
2023-04-28T04:36:06.737Z,9.20
2023-04-28T04:41:08.454Z,9.48
2023-04-28T04:46:10.330Z,9.95
2023-04-28T04:51:12.173Z,14.48
2023-04-28T04:56:14.585Z,11.60
2023-04-28T05:01:16.736Z,11.10
2023-04-28T05:06:18.616Z,11.07
2023-04-28T05:11:26.369Z,10.60
2023-04-28T05:16:28.353Z,11.05
2023-04-28T05:21:42.248Z,10.80
2023-04-28T05:26:44.099Z,10.80
2023-04-28T05:31:46.085Z,10.70
2023-04-28T05:36:47.944Z,9.18
2023-04-28T05:41:49.972Z,10.10
2023-04-28T05:46:51.920Z,10.35
2023-04-28T05:51:59.105Z,10.18
2023-04-28T05:57:02.011Z,11.52
2023-04-28T06:02:04.749Z,9.43
2023-04-28T06:07:06.633Z,10.35
2023-04-28T06:12:13.686Z,11.40
2023-04-28T06:17:15.568Z,11.77
2023-04-28T06:22:18.113Z,12.18
2023-04-28T06:27:25.207Z,11.15
2023-04-28T06:32:27.219Z,12.30
2023-04-28T06:37:28.985Z,11.93
2023-04-28T06:42:30.754Z,15.30
2023-04-28T06:47:40.853Z,11.27
2023-04-28T06:52:44.245Z,15.48
2023-04-28T06:57:46.303Z,12.95
2023-04-28T07:02:48.384Z,13.57
2023-04-28T07:07:50.647Z,12.45
2023-04-28T07:12:52.489Z,13.38
2023-04-28T07:17:54.288Z,13.50
2023-04-28T07:22:56.113Z,13.95
2023-04-28T07:27:57.964Z,13.18
2023-04-28T07:32:59.834Z,13.30
2023-04-28T07:38:02.522Z,14.15
2023-04-28T07:43:04.567Z,12.55
2023-04-28T07:48:06.982Z,14.20
2023-04-28T07:53:10.096Z,13.25
2023-04-28T07:58:12.489Z,13.23
2023-04-28T08:03:14.524Z,13.00
2023-04-28T08:08:16.577Z,12.30
2023-04-28T08:13:18.655Z,14.10
2023-04-28T08:18:20.493Z,12.60
2023-04-28T08:23:22.263Z,11.77
2023-04-28T08:28:24.051Z,14.75
2023-04-28T08:33:25.787Z,14.13
2023-04-28T08:38:27.527Z,14.38
2023-04-28T08:43:30.223Z,14.05
2023-04-28T08:48:39.190Z,15.07
2023-04-28T08:54:11.658Z,13.60
2023-04-28T08:59:07.095Z,14.57
2023-04-28T09:04:13.322Z,13.90
2023-04-28T09:09:32.587Z,12.90
2023-04-28T09:14:38.242Z,12.88
2023-04-28T09:19:43.489Z,13.45
2023-04-28T09:24:47.024Z,13.30
2023-04-28T09:29:53.630Z,13.07
2023-04-28T09:34:57.230Z,12.45
2023-04-28T09:40:13.027Z,13.63
2023-04-28T09:45:16.365Z,12.80
2023-04-28T09:50:18.325Z,13.88
2023-04-28T09:55:20.540Z,11.85
2023-04-28T10:00:23.500Z,12.80
2023-04-28T10:05:25.849Z,11.85
2023-04-28T10:10:28.519Z,12.20
2023-04-28T10:15:31.420Z,11.95
2023-04-28T10:20:34.040Z,11.15
2023-04-28T10:25:37.273Z,11.38
2023-04-28T10:30:39.061Z,10.63
2023-04-28T10:35:45.213Z,11.30
2023-04-28T10:40:51.093Z,10.95
2023-04-28T10:45:56.156Z,10.23
2023-04-28T10:51:04.778Z,9.63
2023-04-28T10:56:07.154Z,10.27
2023-04-28T11:01:32.271Z,10.10
2023-04-28T11:06:40.678Z,10.50
2023-04-28T11:11:54.580Z,9.75
2023-04-28T11:17:04.235Z,9.35
2023-04-28T11:22:15.330Z,9.48
2023-04-28T11:27:24.198Z,8.93
2023-04-28T11:32:34.254Z,9.25
2023-04-28T11:42:47.611Z,9.00
2023-04-28T11:47:49.739Z,6.72
2023-04-28T11:52:53.582Z,6.68
2023-04-28T11:58:17.724Z,8.00
2023-04-28T12:03:19.614Z,6.45
2023-04-28T12:08:29.110Z,6.00
2023-04-28T12:13:30.891Z,4.25
2023-04-28T12:18:33.153Z,3.75
2023-04-28T12:23:36.402Z,2.05
2023-04-28T12:28:44.541Z,1.50
2023-04-28T12:33:46.274Z,1.80
2023-04-28T12:38:49.628Z,1.40
2023-04-28T12:43:51.358Z,1.40
2023-04-28T12:48:53.427Z,1.85
2023-04-28T12:53:55.496Z,1.40
2023-04-28T12:58:58.000Z,1.30
2023-04-28T13:03:59.921Z,1.20
2023-04-28T13:09:01.818Z,1.30
2023-04-28T13:14:05.830Z,1.25
2023-04-28T13:19:15.284Z,1.30
2023-04-28T13:24:17.827Z,1.30
2023-04-28T13:29:19.788Z,1.20
2023-04-28T13:34:21.850Z,1.20
2023-04-28T13:39:23.755Z,1.75
2023-04-28T13:44:28.024Z,3.22
2023-04-28T13:49:29.961Z,5.15
2023-04-28T13:54:31.765Z,3.70
2023-04-28T13:59:34.143Z,2.50
2023-04-28T14:04:38.194Z,2.20
2023-04-28T14:09:40.666Z,3.15
2023-04-28T14:14:42.869Z,2.80
2023-04-28T14:19:44.715Z,2.78
2023-04-28T14:24:46.929Z,2.42
2023-04-28T14:29:49.228Z,2.92
2023-04-28T14:34:51.382Z,2.80
2023-04-28T14:39:53.207Z,2.45
2023-04-28T14:44:54.949Z,2.60
2023-04-28T14:49:57.988Z,2.10
2023-04-28T14:55:00.771Z,1.80
2023-04-28T15:00:03.903Z,2.10
2023-04-28T15:05:06.306Z,2.03
2023-04-28T15:10:09.058Z,2.53
2023-04-28T15:15:11.305Z,1.83
2023-04-28T15:20:13.128Z,2.28
2023-04-28T15:25:15.625Z,2.35
2023-04-28T15:30:18.755Z,4.60
2023-04-28T15:35:21.261Z,4.30
2023-04-28T15:40:22.998Z,3.30
2023-04-28T15:45:24.756Z,4.22
2023-04-28T15:50:26.968Z,2.72
2023-04-28T15:55:28.808Z,3.30
2023-04-28T16:00:30.702Z,2.45
2023-04-28T16:05:32.458Z,3.05
2023-04-28T16:10:34.317Z,2.40
2023-04-28T16:15:36.230Z,2.55
2023-04-28T16:20:38.227Z,2.25
2023-04-28T16:25:40.426Z,2.08
2023-04-28T16:30:43.336Z,3.10
2023-04-28T16:35:45.071Z,2.63
2023-04-28T16:40:46.811Z,2.70
2023-04-28T16:45:49.121Z,2.90
2023-04-28T16:50:51.087Z,3.13
2023-04-28T16:55:52.947Z,2.55
2023-04-28T17:00:54.733Z,2.28
2023-04-28T17:05:56.499Z,2.25
2023-04-28T17:11:00.342Z,1.95
2023-04-28T17:16:02.534Z,2.35
2023-04-28T17:21:05.542Z,2.00
2023-04-28T17:26:07.358Z,2.00
2023-04-28T17:31:09.276Z,2.25
2023-04-28T17:36:11.398Z,2.03
2023-04-28T17:41:19.993Z,2.67
2023-04-28T17:46:22.515Z,2.17
2023-04-28T17:51:25.406Z,2.70
2023-04-28T17:56:27.724Z,3.03
2023-04-28T18:01:29.509Z,3.92
2023-04-28T18:06:31.264Z,3.28
2023-04-28T18:11:33.055Z,3.30
2023-04-28T18:16:34.887Z,4.30
2023-04-28T18:21:37.563Z,4.00
2023-04-28T18:26:39.423Z,3.30
2023-04-28T18:31:45.245Z,3.20
2023-04-28T18:36:47.063Z,4.32
2023-04-28T18:41:49.236Z,2.80
2023-04-28T18:46:51.664Z,2.58
2023-04-28T18:51:53.484Z,2.90
2023-04-28T18:56:55.267Z,2.80
2023-04-28T19:01:57.092Z,3.55
2023-04-28T19:06:58.900Z,2.90
2023-04-28T19:12:00.685Z,3.03
2023-04-28T19:17:02.544Z,2.65
2023-04-28T19:22:04.652Z,2.50
2023-04-28T19:27:06.529Z,2.80
2023-04-28T19:32:09.926Z,3.10
2023-04-28T19:37:13.003Z,2.83
2023-04-28T19:42:14.757Z,2.72
2023-04-28T19:47:23.968Z,3.08
2023-04-28T19:52:26.404Z,3.35
2023-04-28T19:57:28.305Z,3.60
2023-04-28T20:02:30.357Z,3.50
2023-04-28T20:07:32.205Z,2.55
2023-04-28T20:12:33.970Z,3.25
2023-04-28T20:17:35.970Z,2.67
2023-04-28T20:22:37.767Z,3.00
2023-04-28T20:27:39.620Z,3.78
2023-04-28T20:32:41.402Z,2.88
2023-04-28T20:37:43.166Z,3.00
2023-04-28T20:42:45.121Z,2.90
2023-04-28T20:47:46.943Z,3.67
2023-04-28T20:52:48.741Z,3.90
2023-04-28T20:57:50.583Z,7.90
2023-04-28T21:02:52.520Z,5.53
2023-04-28T21:07:54.616Z,4.85
2023-04-28T21:12:56.346Z,3.95
2023-04-28T21:17:58.087Z,6.13
2023-04-28T21:22:59.921Z,6.38
2023-04-28T21:28:01.972Z,6.13
2023-04-28T21:33:03.967Z,7.88
2023-04-28T21:38:05.840Z,4.78
2023-04-28T21:43:08.307Z,5.40
2023-04-28T21:48:11.134Z,5.10
2023-04-28T21:53:13.172Z,6.30
2023-04-28T21:58:15.266Z,5.97
2023-04-28T22:03:17.216Z,5.93
2023-04-28T22:08:19.527Z,5.53
2023-04-28T22:13:22.801Z,5.30
2023-04-28T22:18:24.905Z,7.22
2023-04-28T22:23:26.684Z,5.80
2023-04-28T22:28:28.473Z,5.30
2023-04-28T22:33:30.201Z,4.40
2023-04-28T22:38:31.938Z,5.15
2023-04-28T22:43:33.755Z,4.88
2023-04-28T22:48:35.499Z,4.53
2023-04-28T22:53:37.220Z,4.40
2023-04-28T22:58:38.948Z,4.53
2023-04-28T23:03:41.578Z,3.63
2023-04-28T23:08:43.798Z,4.88
2023-04-28T23:13:45.882Z,3.55
2023-04-28T23:18:47.612Z,2.40
2023-04-28T23:23:49.359Z,2.78
2023-04-28T23:28:51.130Z,2.60
2023-04-28T23:33:53.282Z,4.40
2023-04-28T23:38:55.097Z,4.97
2023-04-28T23:43:56.885Z,2.30
2023-04-28T23:48:58.609Z,1.90
2023-04-28T23:54:01.594Z,2.05
2023-04-28T23:59:03.415Z,1.90
